Airfield :
LOGIN :

Register | Disclaimer

   EN    FR    IT 

 










Legend :    VFR   Marginal VFR   IFR   Intensive IFR   Very Intensive IFR
Visi :
Ceiling :
>= 8 km
>= 3000ft
5 to 8 km
1000 to 3000 ft
1500m to 5 km
500 to 1000 ft
800 to 1500m
200 to 500 ft
< 800m
< 200 ft
Symbols :   Thunderstorms  Fog  Heavy snow  Heavy precipitations  Wind > 20 kt
SIGMETs :     Misc.  Thunderstorms  Icing  Turbulence  Mountain Waves  Volcanic Ashes







- Airport Elevation : 526 ft
- IATA code : LTN
- Download approach charts


EGGW - London Luton

CURRENT METAR :
  • 190650Z AUTO 34005KT 270V050 9999 BKN006 14/13 Q1007

EXPIRED METARs :
  • 190620Z AUTO 35005KT 320V060 9999 BKN004 13/13 Q1007
  • 190550Z AUTO 01005KT 320V070 8000 BKN004 13/13 Q1007
  • 190520Z AUTO 35006KT 290V040 9000 SCT004 13/12 Q1006
  • 190450Z AUTO 36005KT 8000 FEW004 13/12 Q1006
  • 190420Z AUTO 02005KT 6000 FEW003 13/13 Q1007

TAF TAF EGGW
Valid from the 19 at 06:00 until the 20 at 06:00 UTC


190507Z 1906/2006 34004KT 7000 FEW003
BECMG 1906/1909 9999 NSW BKN006
TEMPO 1906/1909 BKN004
PROB30
TEMPO 1909/1911 2500 +SHRA TSRA BKN004 BKN045CB
BECMG 1911/1914 27010KT BKN020
TEMPO 1911/1918 7000 SHRA
PROB30
TEMPO 1913/1916 3000 +SHRA BKN014CB
BECMG 1922/2001 CAVOK
PROB40
TEMPO 2003/2006 9000 BKN006
ATIS : +44 1582 395 204
No reported NOTAMs for that airfield.
2 SIGMETs reported for the London FIR (EGTT) :
 
Embedded thunderstorms
EGTT SIGMET 03 VALID 190545/190900 EGRR
EGTT LONDON FIR EMBD TS FCST WI N5331 E00317 - N5421 E00301 - N5421 E00427 - N5329 E00342 - N5331 E00317 TOP FL330 MOV NE 25KT NC=
Embedded thunderstorms
EGTT SIGMET 02 VALID 190500/190900 EGRR
EGTT LONDON FIR EMBD TS FCST WI N5130 E00200 - N5107 E00200 - N5100 E00128 - N5040 E00128 - N5000 W00015 - N5000 W00139 - N5130 E00200 TOP FL330 MOV NE 25KT NC=



MET'MAP, your aeronautical weather chart ! - Copyright ORBIFLY December 2007 - Disclaimer

ORBIFLY MET'MAP TEAM :

Programming & Development : Alexandra Zaïnal
Concept & Development : Baudouin d'Aumeries
Co-Development & Prog : Marc-Olivier Méhu
Technical & hardware support : Manuel Goepfert

Contact : metmap@orbifly.com




SOURCES & CREDITS :

   NOAA